createdAt,value
2019-03-19T00:02:09.865Z,3.96
2019-03-19T00:04:39.445Z,3.96
2019-03-19T00:07:08.901Z,3.84
2019-03-19T00:09:38.381Z,3.79
2019-03-19T00:12:07.822Z,3.81
2019-03-19T00:14:37.292Z,3.74
2019-03-19T00:17:06.765Z,3.87
2019-03-19T00:19:36.218Z,3.94
2019-03-19T00:22:05.758Z,3.85
2019-03-19T00:24:35.231Z,3.77
2019-03-19T00:27:05.374Z,4.01
2019-03-19T00:29:34.854Z,3.99
2019-03-19T00:32:04.305Z,3.97
2019-03-19T00:34:33.936Z,3.89
2019-03-19T00:37:03.561Z,3.72
2019-03-19T00:39:33.025Z,3.81
2019-03-19T00:42:02.212Z,3.78
2019-03-19T00:44:31.828Z,3.73
2019-03-19T00:47:01.321Z,3.65
2019-03-19T00:49:30.976Z,3.64
2019-03-19T00:52:00.597Z,3.61
2019-03-19T00:54:30.072Z,3.62
2019-03-19T00:56:59.649Z,3.71
2019-03-19T00:59:29.124Z,3.58
2019-03-19T01:01:58.582Z,3.46
2019-03-19T01:07:43.973Z,3.29
2019-03-19T01:10:17.340Z,3.27
2019-03-19T01:12:46.305Z,3.16
2019-03-19T01:15:15.942Z,3.33
2019-03-19T01:17:45.454Z,3.16
2019-03-19T01:20:16.675Z,3.14
2019-03-19T01:22:46.221Z,3.18
2019-03-19T01:25:16.420Z,3.02
2019-03-19T01:27:45.934Z,3.09
2019-03-19T01:30:16.860Z,2.93
2019-03-19T01:32:46.413Z,2.78
2019-03-19T01:35:17.636Z,2.69
2019-03-19T01:37:47.096Z,2.66
2019-03-19T01:40:16.964Z,2.57
2019-03-19T01:42:46.421Z,2.58
2019-03-19T01:45:16.304Z,2.66
2019-03-19T01:47:45.766Z,2.73
2019-03-19T01:50:16.160Z,2.78
2019-03-19T01:52:45.834Z,2.77
2019-03-19T01:55:16.107Z,2.67
2019-03-19T01:57:45.657Z,2.69
2019-03-19T02:00:16.659Z,2.78
2019-03-19T02:02:46.205Z,2.83
2019-03-19T02:05:36.524Z,2.84
2019-03-19T02:08:06.155Z,2.84
2019-03-19T02:10:35.662Z,2.75
2019-03-19T02:13:05.300Z,2.70
2019-03-19T02:15:34.888Z,2.72
2019-03-19T02:18:04.528Z,2.76
2019-03-19T02:20:34.132Z,2.70
2019-03-19T02:23:04.787Z,2.73
2019-03-19T02:25:34.296Z,2.54
2019-03-19T02:28:04.105Z,2.59
2019-03-19T02:30:33.557Z,2.49
2019-03-19T02:33:03.164Z,2.28
2019-03-19T02:35:32.623Z,2.30
2019-03-19T02:38:02.135Z,2.48
2019-03-19T02:40:31.708Z,2.36
2019-03-19T02:43:01.339Z,2.25
2019-03-19T02:45:30.821Z,2.11
2019-03-19T02:48:00.486Z,1.97
2019-03-19T02:50:30.099Z,1.91
2019-03-19T02:52:59.750Z,1.91
2019-03-19T02:58:26.669Z,1.86
2019-03-19T03:00:56.228Z,1.74
2019-03-19T03:03:25.716Z,1.74
2019-03-19T03:05:55.334Z,1.87
2019-03-19T03:08:24.810Z,1.92
2019-03-19T03:10:56.595Z,1.96
2019-03-19T03:13:25.845Z,1.98
2019-03-19T03:15:55.344Z,2.02
2019-03-19T03:18:24.854Z,1.84
2019-03-19T03:20:55.981Z,1.76
2019-03-19T03:23:25.256Z,1.60
2019-03-19T03:25:54.599Z,1.68
2019-03-19T03:28:24.163Z,1.63
2019-03-19T03:30:53.631Z,1.66
2019-03-19T03:33:23.028Z,1.50
2019-03-19T03:35:52.540Z,1.47
2019-03-19T03:38:22.120Z,1.28
2019-03-19T03:41:12.881Z,1.31
2019-03-19T03:43:42.473Z,1.27
2019-03-19T03:46:12.520Z,1.23
2019-03-19T03:48:42.246Z,1.32
2019-03-19T03:51:12.125Z,1.21
2019-03-19T03:53:41.692Z,1.12
2019-03-19T03:56:11.695Z,1.20
2019-03-19T03:58:41.502Z,1.20
2019-03-19T04:01:11.244Z,1.08
2019-03-19T04:03:40.836Z,1.06
2019-03-19T04:06:11.055Z,1.21
2019-03-19T04:08:40.560Z,1.18
2019-03-19T04:11:10.562Z,1.02
2019-03-19T04:13:40.167Z,1.06
2019-03-19T04:16:09.784Z,1.01
2019-03-19T04:18:39.204Z,1.01
2019-03-19T04:21:08.848Z,0.96
2019-03-19T04:23:38.402Z,1.10
2019-03-19T04:26:07.879Z,1.04
2019-03-19T04:28:37.359Z,1.09
2019-03-19T04:31:06.825Z,1.04
2019-03-19T04:33:36.372Z,0.99
2019-03-19T04:36:05.909Z,1.01
2019-03-19T04:38:35.396Z,0.96
2019-03-19T04:41:04.922Z,0.95
2019-03-19T04:43:34.547Z,0.89
2019-03-19T04:46:04.068Z,0.82
2019-03-19T04:48:33.625Z,0.81
2019-03-19T04:51:23.940Z,0.81
2019-03-19T04:53:53.508Z,0.83
2019-03-19T04:56:22.391Z,0.76
2019-03-19T04:58:52.009Z,0.90
2019-03-19T05:01:21.639Z,0.83
2019-03-19T05:03:51.355Z,0.99
2019-03-19T05:06:20.888Z,0.99
2019-03-19T05:08:50.321Z,1.14
2019-03-19T05:11:19.820Z,0.99
2019-03-19T05:13:49.296Z,0.85
2019-03-19T05:16:18.791Z,0.74
2019-03-19T05:18:48.294Z,0.63
2019-03-19T05:21:17.741Z,0.58
2019-03-19T05:23:47.252Z,0.59
2019-03-19T05:26:16.762Z,0.63
2019-03-19T05:28:46.319Z,0.67
2019-03-19T05:31:15.777Z,0.62
2019-03-19T05:33:45.388Z,0.75
2019-03-19T05:36:16.366Z,0.65
2019-03-19T05:38:45.869Z,0.65
2019-03-19T05:41:16.664Z,0.75
2019-03-19T05:43:46.327Z,0.71
2019-03-19T05:46:15.885Z,0.65
2019-03-19T05:48:45.446Z,0.67
2019-03-19T05:51:14.898Z,0.69
2019-03-19T05:53:44.497Z,0.90
2019-03-19T05:56:13.941Z,1.09
2019-03-19T05:58:43.603Z,1.20
2019-03-19T06:01:13.032Z,1.42
2019-03-19T06:03:42.588Z,1.67
2019-03-19T06:06:12.331Z,1.93
2019-03-19T06:08:41.898Z,2.46
2019-03-19T06:11:11.507Z,3.05
2019-03-19T06:13:41.127Z,3.59
2019-03-19T06:16:10.818Z,3.68
2019-03-19T06:18:40.373Z,4.61
2019-03-19T06:21:10.012Z,5.90
2019-03-19T06:23:39.576Z,7.14
2019-03-19T06:26:09.225Z,7.84
2019-03-19T06:28:38.727Z,8.45
2019-03-19T06:31:08.621Z,9.08
2019-03-19T06:33:38.067Z,8.41
2019-03-19T06:36:08.033Z,7.15
2019-03-19T06:38:37.578Z,9.03
2019-03-19T06:41:07.522Z,10.57
2019-03-19T06:43:36.973Z,10.57
2019-03-19T06:46:06.531Z,10.08
2019-03-19T06:48:35.994Z,11.52
2019-03-19T06:51:05.614Z,11.18
2019-03-19T06:53:35.207Z,11.54
2019-03-19T06:56:04.824Z,11.59
2019-03-19T06:58:34.382Z,11.72
2019-03-19T07:01:04.057Z,12.90
2019-03-19T07:03:33.461Z,13.39
2019-03-19T07:06:03.182Z,12.35
2019-03-19T07:08:32.745Z,12.01
2019-03-19T07:11:02.218Z,12.20
2019-03-19T07:13:31.805Z,12.25
2019-03-19T07:16:41.330Z,12.90
2019-03-19T07:19:11.144Z,12.42
2019-03-19T07:21:40.838Z,13.78
2019-03-19T07:24:10.471Z,13.73
2019-03-19T07:26:40.123Z,13.62
2019-03-19T07:32:18.725Z,13.73
2019-03-19T07:34:48.197Z,13.07
2019-03-19T07:37:17.682Z,13.55
2019-03-19T07:39:47.298Z,13.97
2019-03-19T07:42:16.797Z,14.22
2019-03-19T07:44:46.256Z,14.22
2019-03-19T07:47:15.755Z,10.95
2019-03-19T07:49:45.350Z,11.48
2019-03-19T07:52:14.830Z,13.00
2019-03-19T07:54:44.307Z,12.29
2019-03-19T07:57:13.781Z,11.94
2019-03-19T07:59:43.315Z,13.26
2019-03-19T08:02:12.929Z,13.28
2019-03-19T08:04:42.458Z,11.03
2019-03-19T08:07:12.105Z,10.83
2019-03-19T08:09:41.871Z,9.81
2019-03-19T08:12:11.702Z,9.77
2019-03-19T08:14:42.910Z,8.89
2019-03-19T08:17:14.152Z,9.10
2019-03-19T08:19:43.619Z,11.22
2019-03-19T08:22:14.176Z,11.13
2019-03-19T08:24:43.858Z,12.01
2019-03-19T08:27:13.365Z,10.63
2019-03-19T08:29:42.829Z,12.62
2019-03-19T08:32:12.445Z,11.84
2019-03-19T08:34:41.715Z,12.18
2019-03-19T08:37:11.623Z,12.78
2019-03-19T08:39:41.213Z,12.44
2019-03-19T08:42:11.095Z,10.49
2019-03-19T08:44:40.650Z,11.19
2019-03-19T08:47:10.458Z,10.49
2019-03-19T08:49:40.036Z,10.51
2019-03-19T08:52:09.964Z,9.70
2019-03-19T08:54:39.594Z,10.89
2019-03-19T08:57:09.404Z,10.97
2019-03-19T08:59:38.830Z,10.52
2019-03-19T09:02:08.747Z,9.10
2019-03-19T09:04:38.197Z,10.41
2019-03-19T09:07:07.655Z,10.51
2019-03-19T09:09:37.145Z,10.05
2019-03-19T09:12:06.660Z,10.53
2019-03-19T09:14:36.239Z,9.40
2019-03-19T09:17:05.707Z,9.10
2019-03-19T09:19:35.309Z,8.06
2019-03-19T09:22:05.495Z,7.57
2019-03-19T09:24:35.046Z,7.64
2019-03-19T09:27:04.582Z,7.90
2019-03-19T09:29:34.145Z,6.97
2019-03-19T09:32:03.664Z,7.25
2019-03-19T09:34:33.001Z,7.51
2019-03-19T09:37:02.456Z,7.85
2019-03-19T09:39:32.111Z,7.58
2019-03-19T09:42:02.486Z,7.25
2019-03-19T09:44:32.039Z,7.94
2019-03-19T09:47:01.489Z,8.35
2019-03-19T09:49:30.875Z,8.18
2019-03-19T09:52:00.413Z,8.52
2019-03-19T09:54:32.155Z,8.40
2019-03-19T09:57:01.198Z,7.80
2019-03-19T09:59:51.524Z,8.06
2019-03-19T10:02:21.116Z,8.79
2019-03-19T10:04:50.834Z,7.62
2019-03-19T10:07:20.524Z,8.10
2019-03-19T10:09:50.136Z,8.84
2019-03-19T10:12:19.677Z,8.19
2019-03-19T10:14:49.042Z,9.12
2019-03-19T10:17:18.577Z,9.45
2019-03-19T10:19:48.061Z,9.46
2019-03-19T10:22:17.515Z,9.70
2019-03-19T10:24:47.055Z,9.70
2019-03-19T10:27:16.683Z,9.80
2019-03-19T10:33:01.310Z,9.82
2019-03-19T10:38:45.995Z,9.83
2019-03-19T10:41:15.521Z,9.82
2019-03-19T10:43:45.029Z,10.03
2019-03-19T10:46:14.993Z,10.00
2019-03-19T10:48:45.010Z,10.42
2019-03-19T10:51:14.658Z,11.10
2019-03-19T10:53:44.206Z,11.36
2019-03-19T10:56:13.733Z,11.32
2019-03-19T10:58:43.199Z,10.35
2019-03-19T11:01:14.342Z,10.67
2019-03-19T11:03:44.349Z,10.05
2019-03-19T11:06:14.936Z,10.00
2019-03-19T11:08:45.352Z,9.64
2019-03-19T11:11:15.956Z,9.68
2019-03-19T11:13:46.114Z,10.34
2019-03-19T11:16:15.571Z,10.73
2019-03-19T11:18:46.061Z,10.68
2019-03-19T11:21:16.369Z,10.68
2019-03-19T11:23:46.528Z,10.56
2019-03-19T11:26:15.979Z,10.21
2019-03-19T11:28:45.439Z,10.08
2019-03-19T11:31:15.256Z,10.19
2019-03-19T11:33:44.729Z,9.98
2019-03-19T11:36:14.213Z,9.98
2019-03-19T11:38:45.471Z,9.91
2019-03-19T11:41:17.357Z,9.79
2019-03-19T11:43:48.544Z,9.99
2019-03-19T11:46:17.975Z,9.70
2019-03-19T11:48:47.225Z,9.62
2019-03-19T11:51:18.244Z,9.69
2019-03-19T11:53:47.868Z,9.91
2019-03-19T11:56:17.478Z,10.23
2019-03-19T11:58:47.033Z,10.26
2019-03-19T12:01:16.614Z,10.46
2019-03-19T12:03:46.046Z,10.70
2019-03-19T12:06:15.538Z,10.56
2019-03-19T12:08:45.105Z,10.45
2019-03-19T12:11:14.588Z,10.10
2019-03-19T12:13:44.147Z,10.35
2019-03-19T12:16:13.603Z,10.19
2019-03-19T12:18:43.253Z,10.69
2019-03-19T12:21:12.820Z,11.15
2019-03-19T12:26:57.343Z,11.78
2019-03-19T12:29:26.846Z,12.35
2019-03-19T12:31:56.378Z,12.17
2019-03-19T12:34:25.954Z,12.01
2019-03-19T12:36:55.419Z,11.92
2019-03-19T12:39:24.929Z,12.15
2019-03-19T12:41:54.565Z,12.02
2019-03-19T12:44:24.105Z,11.57
2019-03-19T12:46:53.607Z,11.52
2019-03-19T12:49:23.078Z,11.59
2019-03-19T12:51:52.583Z,11.64
2019-03-19T12:54:22.193Z,11.66
2019-03-19T12:56:52.008Z,11.45
2019-03-19T12:59:21.478Z,11.05
2019-03-19T13:01:50.893Z,10.17
2019-03-19T13:04:20.558Z,9.83
2019-03-19T13:06:50.150Z,10.28
2019-03-19T13:09:19.699Z,10.32
2019-03-19T13:11:49.173Z,10.25
2019-03-19T13:14:18.707Z,10.36
2019-03-19T13:16:49.138Z,10.40
2019-03-19T13:19:18.669Z,10.35
2019-03-19T13:21:48.153Z,10.33
2019-03-19T13:24:57.665Z,10.23
2019-03-19T13:27:27.164Z,10.27
2019-03-19T13:29:56.718Z,10.09
2019-03-19T13:32:28.233Z,10.21
2019-03-19T13:34:57.220Z,10.04
2019-03-19T13:37:26.706Z,10.30
2019-03-19T13:39:56.197Z,9.80
2019-03-19T13:42:25.689Z,9.69
2019-03-19T13:44:55.317Z,10.05
2019-03-19T13:47:24.920Z,10.25
2019-03-19T13:49:56.041Z,10.01
2019-03-19T13:52:25.589Z,9.88
2019-03-19T13:54:55.122Z,10.04
2019-03-19T13:57:24.611Z,10.14
2019-03-19T13:59:54.035Z,10.26
2019-03-19T14:02:23.511Z,10.36
2019-03-19T14:04:52.874Z,10.43
2019-03-19T14:07:22.610Z,10.62
2019-03-19T14:09:52.250Z,10.74
2019-03-19T14:12:21.728Z,10.69
2019-03-19T14:14:51.331Z,10.64
2019-03-19T14:17:20.912Z,10.51
2019-03-19T14:19:51.405Z,10.69
2019-03-19T14:22:21.120Z,10.56
2019-03-19T14:24:50.757Z,10.42
2019-03-19T14:27:20.420Z,10.42
2019-03-19T14:29:51.732Z,10.46
2019-03-19T14:32:21.393Z,10.23
2019-03-19T14:34:50.927Z,10.18
2019-03-19T14:37:20.590Z,10.05
2019-03-19T14:39:50.180Z,9.72
2019-03-19T14:42:19.849Z,9.38
2019-03-19T14:44:49.440Z,9.31
2019-03-19T14:47:19.062Z,9.32
2019-03-19T14:49:49.919Z,9.23
2019-03-19T14:52:19.668Z,9.09
2019-03-19T14:54:49.212Z,8.97
2019-03-19T14:57:18.717Z,8.99
2019-03-19T14:59:48.426Z,9.05
2019-03-19T15:02:17.781Z,9.30
2019-03-19T15:04:47.265Z,9.48
2019-03-19T15:07:16.827Z,9.69
2019-03-19T15:09:46.281Z,10.06
2019-03-19T15:12:15.832Z,10.07
2019-03-19T15:14:45.402Z,10.20
2019-03-19T15:17:14.931Z,10.07
2019-03-19T15:19:44.492Z,9.94
2019-03-19T15:22:14.075Z,9.66
2019-03-19T15:24:45.380Z,9.50
2019-03-19T15:27:14.894Z,9.71
2019-03-19T15:29:45.417Z,9.93
2019-03-19T15:32:14.941Z,10.02
2019-03-19T15:34:44.405Z,9.91
2019-03-19T15:37:13.851Z,9.73
2019-03-19T15:39:43.345Z,10.00
2019-03-19T15:42:12.797Z,10.07
2019-03-19T15:44:42.225Z,10.17
2019-03-19T15:47:11.957Z,10.03
2019-03-19T15:49:41.470Z,9.95
2019-03-19T15:52:11.074Z,9.80
2019-03-19T15:54:40.679Z,9.92
2019-03-19T15:57:11.716Z,10.05
2019-03-19T15:59:41.361Z,9.99
2019-03-19T16:02:11.328Z,10.06
2019-03-19T16:04:40.976Z,9.84
2019-03-19T16:07:10.852Z,9.78
2019-03-19T16:09:42.241Z,10.01
2019-03-19T16:12:11.836Z,9.81
2019-03-19T16:14:42.381Z,9.80
2019-03-19T16:17:12.051Z,9.94
2019-03-19T16:19:41.772Z,9.91
2019-03-19T16:22:11.423Z,9.93
2019-03-19T16:24:40.885Z,9.86
2019-03-19T16:27:10.623Z,9.91
2019-03-19T16:29:40.238Z,9.77
2019-03-19T16:32:09.966Z,9.47
2019-03-19T16:34:39.590Z,9.66
2019-03-19T16:37:09.421Z,9.71
2019-03-19T16:39:38.872Z,9.67
2019-03-19T16:42:08.488Z,9.59
2019-03-19T16:44:37.923Z,9.65
2019-03-19T16:47:07.545Z,9.65
2019-03-19T16:49:37.155Z,9.52
2019-03-19T16:52:06.638Z,9.46
2019-03-19T16:54:36.408Z,9.39
2019-03-19T16:57:06.207Z,9.56
2019-03-19T16:59:35.721Z,9.50
2019-03-19T17:02:05.350Z,9.52
2019-03-19T17:04:34.845Z,9.42
2019-03-19T17:07:04.350Z,9.25
2019-03-19T17:09:33.808Z,9.10
2019-03-19T17:12:05.866Z,9.23
2019-03-19T17:14:37.837Z,9.18
2019-03-19T17:17:09.955Z,9.05
2019-03-19T17:19:41.932Z,8.90
2019-03-19T17:22:13.925Z,8.89
2019-03-19T17:24:45.903Z,8.64
2019-03-19T17:27:17.871Z,8.53
2019-03-19T17:29:49.834Z,8.48
2019-03-19T17:32:21.832Z,8.62
2019-03-19T17:34:53.807Z,8.33
2019-03-19T17:37:25.802Z,8.33
2019-03-19T17:39:57.840Z,8.16
2019-03-19T17:42:29.860Z,8.00
2019-03-19T17:45:01.804Z,7.91
2019-03-19T17:47:33.824Z,7.79
2019-03-19T17:50:05.217Z,7.88
2019-03-19T17:52:34.739Z,7.98
2019-03-19T17:55:06.083Z,7.78
2019-03-19T17:57:35.781Z,7.58
2019-03-19T18:00:08.953Z,7.53
2019-03-19T18:02:38.413Z,7.58
2019-03-19T18:05:09.719Z,7.46
2019-03-19T18:07:39.275Z,7.42
2019-03-19T18:10:11.788Z,7.40
2019-03-19T18:12:41.627Z,7.51
2019-03-19T18:15:13.887Z,7.45
2019-03-19T18:17:43.468Z,7.41
2019-03-19T18:20:15.653Z,7.42
2019-03-19T18:22:45.311Z,7.42
2019-03-19T18:25:17.878Z,7.39
2019-03-19T18:27:47.506Z,7.39
2019-03-19T18:30:19.486Z,7.35
2019-03-19T18:32:49.058Z,7.33
2019-03-19T18:35:18.731Z,7.22
2019-03-19T18:37:48.269Z,7.31
2019-03-19T18:40:18.713Z,7.34
2019-03-19T18:42:48.301Z,7.25
2019-03-19T18:45:20.019Z,7.13
2019-03-19T18:47:49.715Z,7.05
2019-03-19T18:50:20.268Z,7.08
2019-03-19T18:52:49.882Z,6.94
2019-03-19T18:55:19.425Z,6.90
2019-03-19T18:57:48.957Z,6.80
2019-03-19T19:00:20.101Z,6.74
2019-03-19T19:02:51.042Z,6.76
2019-03-19T19:05:22.862Z,6.90
2019-03-19T19:07:52.431Z,7.02
2019-03-19T19:10:21.913Z,7.03
2019-03-19T19:12:51.506Z,6.88
2019-03-19T19:15:22.112Z,6.72
2019-03-19T19:17:51.694Z,6.72
2019-03-19T19:20:21.409Z,6.68
2019-03-19T19:22:51.985Z,6.66
2019-03-19T19:25:23.592Z,6.59
2019-03-19T19:27:53.162Z,6.57
2019-03-19T19:30:23.867Z,6.52
2019-03-19T19:33:01.572Z,6.50
2019-03-19T19:35:26.193Z,6.51
2019-03-19T19:37:55.654Z,6.49
2019-03-19T19:40:25.135Z,6.44
2019-03-19T19:42:54.685Z,6.41
2019-03-19T19:45:24.240Z,6.38
2019-03-19T19:47:53.859Z,6.29
2019-03-19T19:50:23.941Z,6.30
2019-03-19T19:52:53.407Z,6.27
2019-03-19T19:55:22.957Z,6.25
2019-03-19T19:57:52.537Z,6.29
2019-03-19T20:00:23.149Z,6.24
2019-03-19T20:02:52.741Z,6.19
2019-03-19T20:05:22.336Z,6.14
2019-03-19T20:07:51.807Z,6.15
2019-03-19T20:10:23.616Z,6.10
2019-03-19T20:12:53.104Z,6.12
2019-03-19T20:15:23.378Z,6.09
2019-03-19T20:17:52.853Z,6.07
2019-03-19T20:20:24.760Z,6.08
2019-03-19T20:22:54.289Z,6.14
2019-03-19T20:25:23.781Z,6.20
2019-03-19T20:27:52.978Z,6.14
2019-03-19T20:30:24.516Z,6.07
2019-03-19T20:32:54.023Z,5.98
2019-03-19T20:35:23.677Z,5.96
2019-03-19T20:37:55.207Z,5.90
2019-03-19T20:40:24.688Z,5.87
2019-03-19T20:42:54.208Z,5.86
2019-03-19T20:45:25.311Z,5.80
2019-03-19T20:47:55.807Z,5.76
2019-03-19T20:50:28.081Z,5.67
2019-03-19T20:52:57.651Z,5.69
2019-03-19T20:55:27.063Z,5.67
2019-03-19T20:57:56.536Z,5.65
2019-03-19T21:00:25.917Z,5.66
2019-03-19T21:02:55.605Z,5.70
2019-03-19T21:05:25.177Z,5.82
2019-03-19T21:07:54.918Z,5.84
2019-03-19T21:10:25.173Z,5.88
2019-03-19T21:12:54.807Z,5.90
2019-03-19T21:15:30.461Z,5.69
2019-03-19T21:17:59.820Z,5.71
2019-03-19T21:20:28.997Z,5.47
2019-03-19T21:22:58.287Z,5.23
2019-03-19T21:25:27.897Z,5.16
2019-03-19T21:27:57.381Z,5.19
2019-03-19T21:30:27.062Z,5.38
2019-03-19T21:32:56.580Z,4.90
2019-03-19T21:35:26.077Z,4.77
2019-03-19T21:37:55.842Z,4.67
2019-03-19T21:40:25.974Z,4.72
2019-03-19T21:42:55.624Z,4.75
2019-03-19T21:45:25.327Z,4.61
2019-03-19T21:47:54.918Z,4.76
2019-03-19T21:50:25.494Z,4.90
2019-03-19T21:52:54.978Z,5.14
2019-03-19T21:55:24.578Z,5.02
2019-03-19T21:57:53.861Z,4.89
2019-03-19T22:00:25.646Z,4.69
2019-03-19T22:02:55.260Z,4.82
2019-03-19T22:05:24.855Z,4.92
2019-03-19T22:07:54.139Z,4.69
2019-03-19T22:10:23.592Z,4.62
2019-03-19T22:12:53.157Z,4.61
2019-03-19T22:15:24.813Z,4.61
2019-03-19T22:17:54.336Z,4.59
2019-03-19T22:20:25.757Z,4.54
2019-03-19T22:22:55.049Z,4.63
2019-03-19T22:25:24.578Z,4.62
2019-03-19T22:27:54.282Z,4.57
2019-03-19T22:30:23.920Z,4.64
2019-03-19T22:32:53.529Z,4.54
2019-03-19T22:35:25.062Z,4.33
2019-03-19T22:37:54.565Z,4.43
2019-03-19T22:40:24.036Z,4.44
2019-03-19T22:42:53.490Z,4.39
2019-03-19T22:45:23.039Z,4.46
2019-03-19T22:47:52.573Z,4.39
2019-03-19T22:50:22.219Z,4.31
2019-03-19T22:52:51.819Z,4.31
2019-03-19T22:55:29.066Z,4.28
2019-03-19T22:57:53.168Z,4.16
2019-03-19T23:00:26.002Z,4.08
2019-03-19T23:02:55.505Z,4.10
2019-03-19T23:05:25.144Z,4.03
2019-03-19T23:07:54.665Z,3.93
2019-03-19T23:10:24.237Z,4.08
2019-03-19T23:12:53.859Z,3.93
2019-03-19T23:15:23.488Z,3.84
2019-03-19T23:17:53.116Z,3.68
2019-03-19T23:20:22.639Z,3.62
2019-03-19T23:22:52.263Z,3.48
2019-03-19T23:25:21.853Z,3.37
2019-03-19T23:27:51.575Z,3.34
2019-03-19T23:30:22.912Z,3.38
2019-03-19T23:32:52.533Z,3.12
2019-03-19T23:35:22.124Z,3.07
2019-03-19T23:37:51.602Z,3.15
2019-03-19T23:40:21.805Z,3.15
2019-03-19T23:42:51.525Z,3.24
2019-03-19T23:45:20.914Z,3.29
2019-03-19T23:47:50.600Z,3.20
2019-03-19T23:50:21.114Z,3.24
2019-03-19T23:52:50.763Z,3.12
2019-03-19T23:55:20.344Z,3.06
2019-03-19T23:57:49.967Z,2.75
